Terminal Aerodrome Forecast
Issued by NWS

Home | Current Version | Previous Version | Text Only | Print | Product List | Glossary On
Versions: 1 2 3 4 5 6 7 8 9 10 11 12 13 14 15 16 17 18 19 20 21 22 23 24 25 26 27 28 29 30 31 32
107
FTUS45 KVEF 212334
TAFVGT
TAF
KVGT 212334Z 2200/2224 36018G25KT P6SM FEW070 BKN090
     FM220200 34014G24KT P6SM SCT090 BKN150
     FM220700 34021G30KT P6SM SKC=

USA.gov is the U.S. government's official web portal to all federal, state and local government web resources and services.